Batchelor, Northern Territory

7:05 AM CST on September 17, 2014 (GMT +0930)
Darwin International | Change Station
CLOSE
Current Station
Airport
Location: Darwin,
Elevation: 98 ft
Nearby Weather Stations

Elev 98 ft 12.42 °S, 130.89 °E | Updated 35 minutes ago

Partly Cloudy
Partly Cloudy
72 °F
Feels Like 72 °F
N
5
Wind Variable Wind from South

Today
High -- | Low -- °F
--% Chance of Precip.
Yesterday
High -- | Low -- °F
Precip. -- in
6:39 AM 6:41 PM
Last Quarter, 42% visible
Pressure 29.92 in
Visibility 6.2 miles
Clouds Few 1500 ft
Dew Point 68 °F
Humidity 88%
Rainfall 0.00 in
Snow Depth Not available.
UV 0 out of 12
Pollen Not available.
Air Quality Not available.
Flu Activity Not available.
METAR YPDN 162100Z 17004KT 9999 FEW015 22/20 Q1013 RMK HAZE

More Conditions Fewer Conditions

Pressure 29.92 in
Visibility 6.2 miles
Clouds Few 1500 ft
Dew Point 68 °F
Humidity 88%
Rainfall 0.00 in
Snow Depth Not available.
UV 0 out of 12
Pollen Not available.
Air Quality Not available.
Flu Activity Not available.
METAR YPDN 162100Z 17004KT 9999 FEW015 22/20 Q1013 RMK HAZE

More Conditions Fewer Conditions

10-Day Weather Forecast

Almanac

Astronomy

Sep. 17, 2014 Rise Set
Actual Time 6:39 AM CST 6:41 PM CST
Civil Twilight 6:18 AM CST 7:03 PM CST
Nautical Twilight 5:53 AM CST 7:27 PM CST
Astronomical Twilight 5:29 AM CST 7:52 PM CST
Moon 1:23 AM CST (9/17) 1:10 PM CST (9/17)
Length of Visible Light 12h 44m
Length of Day
12h 02m
Tomorrow will be 0m 43s longer.
Last Quarter, 42% of the Moon is Illuminated
Sep 16
Last Quarter
Sep 24
New
Oct 1
First Quarter
Oct 8
Full
Oct 15
Last Quarter

Yesterday's Extremes

Country Highs Country Lows

Community

WunderPhotos

Upload Photos

1,753,895 photos uploaded!

Nearby

Snow Depth

Not available.

Earthquake Activity

City Distance Mag. Time & Date
No recent earthquake activity has been reported nearby.
Minimum magnitude displayed is 2.5.

Coastal Water Temperatures

Place Temperature
No Stations Reporting

Nearby Weather Stations